sensor_id;sensor_type;location;lat;lon;timestamp;P1;durP1;ratioP1;P2;durP2;ratioP2
434;SDS011;204;48.942;9.256;2023-06-04T00:02:13;14.70;;;10.30;;
434;SDS011;204;48.942;9.256;2023-06-04T00:04:38;11.70;;;9.70;;
434;SDS011;204;48.942;9.256;2023-06-04T00:07:04;10.27;;;8.30;;
434;SDS011;204;48.942;9.256;2023-06-04T00:09:30;13.03;;;10.40;;
434;SDS011;204;48.942;9.256;2023-06-04T00:11:55;16.70;;;9.47;;
434;SDS011;204;48.942;9.256;2023-06-04T00:14:21;9.70;;;8.93;;
434;SDS011;204;48.942;9.256;2023-06-04T00:16:48;9.05;;;8.55;;
434;SDS011;204;48.942;9.256;2023-06-04T00:19:14;14.07;;;9.17;;
434;SDS011;204;48.942;9.256;2023-06-04T00:21:40;9.60;;;9.13;;
434;SDS011;204;48.942;9.256;2023-06-04T00:24:05;9.13;;;8.63;;
434;SDS011;204;48.942;9.256;2023-06-04T00:26:31;9.70;;;9.20;;
434;SDS011;204;48.942;9.256;2023-06-04T00:28:57;9.83;;;9.00;;
434;SDS011;204;48.942;9.256;2023-06-04T00:31:22;10.97;;;9.60;;
434;SDS011;204;48.942;9.256;2023-06-04T00:33:48;10.02;;;8.82;;
434;SDS011;204;48.942;9.256;2023-06-04T00:36:14;9.13;;;8.67;;
434;SDS011;204;48.942;9.256;2023-06-04T00:38:40;10.37;;;9.83;;
434;SDS011;204;48.942;9.256;2023-06-04T00:41:05;9.40;;;7.70;;
434;SDS011;204;48.942;9.256;2023-06-04T00:43:31;12.10;;;8.57;;
434;SDS011;204;48.942;9.256;2023-06-04T00:45:57;9.02;;;8.52;;
434;SDS011;204;48.942;9.256;2023-06-04T00:48:23;9.13;;;8.57;;
434;SDS011;204;48.942;9.256;2023-06-04T00:50:52;10.15;;;9.38;;
434;SDS011;204;48.942;9.256;2023-06-04T00:53:20;9.00;;;8.18;;
434;SDS011;204;48.942;9.256;2023-06-04T00:55:46;12.23;;;8.27;;
434;SDS011;204;48.942;9.256;2023-06-04T00:58:15;8.70;;;7.50;;
434;SDS011;204;48.942;9.256;2023-06-04T01:00:41;9.48;;;7.93;;
434;SDS011;204;48.942;9.256;2023-06-04T01:03:10;12.00;;;7.72;;
434;SDS011;204;48.942;9.256;2023-06-04T01:05:40;16.55;;;7.85;;
434;SDS011;204;48.942;9.256;2023-06-04T01:08:24;7.63;;;7.22;;
434;SDS011;204;48.942;9.256;2023-06-04T01:10:52;7.75;;;7.10;;
434;SDS011;204;48.942;9.256;2023-06-04T01:13:18;10.70;;;8.07;;
434;SDS011;204;48.942;9.256;2023-06-04T01:15:44;9.57;;;6.77;;
434;SDS011;204;48.942;9.256;2023-06-04T01:18:09;8.83;;;8.33;;
434;SDS011;204;48.942;9.256;2023-06-04T01:20:38;8.65;;;8.07;;
434;SDS011;204;48.942;9.256;2023-06-04T01:25:43;10.68;;;7.60;;
434;SDS011;204;48.942;9.256;2023-06-04T01:28:14;9.90;;;7.10;;
434;SDS011;204;48.942;9.256;2023-06-04T01:30:43;8.52;;;7.03;;
434;SDS011;204;48.942;9.256;2023-06-04T01:33:14;11.20;;;8.30;;
434;SDS011;204;48.942;9.256;2023-06-04T01:35:42;10.48;;;7.60;;
434;SDS011;204;48.942;9.256;2023-06-04T01:38:08;10.10;;;7.22;;
434;SDS011;204;48.942;9.256;2023-06-04T01:40:34;8.60;;;8.10;;
434;SDS011;204;48.942;9.256;2023-06-04T01:43:00;10.90;;;6.87;;
434;SDS011;204;48.942;9.256;2023-06-04T01:45:26;11.17;;;7.23;;
434;SDS011;204;48.942;9.256;2023-06-04T01:47:52;6.88;;;6.47;;
434;SDS011;204;48.942;9.256;2023-06-04T01:50:18;7.20;;;6.68;;
434;SDS011;204;48.942;9.256;2023-06-04T01:52:44;8.73;;;7.70;;
434;SDS011;204;48.942;9.256;2023-06-04T01:55:11;8.30;;;6.00;;
434;SDS011;204;48.942;9.256;2023-06-04T01:57:39;8.88;;;7.07;;
434;SDS011;204;48.942;9.256;2023-06-04T02:00:05;7.93;;;6.80;;
434;SDS011;204;48.942;9.256;2023-06-04T02:02:34;7.05;;;5.80;;
434;SDS011;204;48.942;9.256;2023-06-04T02:05:00;7.30;;;6.03;;
434;SDS011;204;48.942;9.256;2023-06-04T02:07:26;7.15;;;5.95;;
434;SDS011;204;48.942;9.256;2023-06-04T02:09:52;6.33;;;5.40;;
434;SDS011;204;48.942;9.256;2023-06-04T02:12:18;7.20;;;5.50;;
434;SDS011;204;48.942;9.256;2023-06-04T02:14:43;6.43;;;6.10;;
434;SDS011;204;48.942;9.256;2023-06-04T02:17:12;5.97;;;5.70;;
434;SDS011;204;48.942;9.256;2023-06-04T02:19:40;6.53;;;5.83;;
434;SDS011;204;48.942;9.256;2023-06-04T02:22:12;4.80;;;4.35;;
434;SDS011;204;48.942;9.256;2023-06-04T02:24:39;4.78;;;4.25;;
434;SDS011;204;48.942;9.256;2023-06-04T02:27:07;4.45;;;4.15;;
434;SDS011;204;48.942;9.256;2023-06-04T02:29:33;8.07;;;4.45;;
434;SDS011;204;48.942;9.256;2023-06-04T02:32:00;6.35;;;4.22;;
434;SDS011;204;48.942;9.256;2023-06-04T02:34:26;6.13;;;4.80;;
434;SDS011;204;48.942;9.256;2023-06-04T02:36:51;4.47;;;4.00;;
434;SDS011;204;48.942;9.256;2023-06-04T02:39:18;5.07;;;4.27;;
434;SDS011;204;48.942;9.256;2023-06-04T02:41:43;5.45;;;4.70;;
434;SDS011;204;48.942;9.256;2023-06-04T02:44:09;5.53;;;5.23;;
434;SDS011;204;48.942;9.256;2023-06-04T02:46:35;4.83;;;4.63;;
434;SDS011;204;48.942;9.256;2023-06-04T02:49:01;6.97;;;4.70;;
434;SDS011;204;48.942;9.256;2023-06-04T02:51:27;6.67;;;5.57;;
434;SDS011;204;48.942;9.256;2023-06-04T02:53:53;6.40;;;5.00;;
434;SDS011;204;48.942;9.256;2023-06-04T02:56:19;5.70;;;3.53;;
434;SDS011;204;48.942;9.256;2023-06-04T02:58:55;6.03;;;5.72;;
434;SDS011;204;48.942;9.256;2023-06-04T03:01:24;6.18;;;3.85;;
434;SDS011;204;48.942;9.256;2023-06-04T03:03:51;7.97;;;5.53;;
434;SDS011;204;48.942;9.256;2023-06-04T03:06:17;5.38;;;4.82;;
434;SDS011;204;48.942;9.256;2023-06-04T03:08:45;5.93;;;5.25;;
434;SDS011;204;48.942;9.256;2023-06-04T03:11:11;5.80;;;5.50;;
434;SDS011;204;48.942;9.256;2023-06-04T03:13:37;4.88;;;4.55;;
434;SDS011;204;48.942;9.256;2023-06-04T03:16:03;6.57;;;5.00;;
434;SDS011;204;48.942;9.256;2023-06-04T03:18:34;4.53;;;4.22;;
434;SDS011;204;48.942;9.256;2023-06-04T03:21:01;5.43;;;4.47;;
434;SDS011;204;48.942;9.256;2023-06-04T03:23:27;7.03;;;5.00;;
434;SDS011;204;48.942;9.256;2023-06-04T03:25:53;6.23;;;4.77;;
434;SDS011;204;48.942;9.256;2023-06-04T03:28:18;5.47;;;4.70;;
434;SDS011;204;48.942;9.256;2023-06-04T03:30:44;6.80;;;4.43;;
434;SDS011;204;48.942;9.256;2023-06-04T03:33:09;5.37;;;3.80;;
434;SDS011;204;48.942;9.256;2023-06-04T03:35:35;4.87;;;4.43;;
434;SDS011;204;48.942;9.256;2023-06-04T03:38:01;3.50;;;3.30;;
434;SDS011;204;48.942;9.256;2023-06-04T03:40:26;3.77;;;3.23;;
434;SDS011;204;48.942;9.256;2023-06-04T03:42:52;4.57;;;3.80;;
434;SDS011;204;48.942;9.256;2023-06-04T03:45:17;4.80;;;4.50;;
434;SDS011;204;48.942;9.256;2023-06-04T03:47:43;7.00;;;4.33;;
434;SDS011;204;48.942;9.256;2023-06-04T03:50:09;4.23;;;3.80;;
434;SDS011;204;48.942;9.256;2023-06-04T03:52:35;5.10;;;3.57;;
434;SDS011;204;48.942;9.256;2023-06-04T03:55:00;5.07;;;3.80;;
434;SDS011;204;48.942;9.256;2023-06-04T03:57:26;3.40;;;3.20;;
434;SDS011;204;48.942;9.256;2023-06-04T03:59:52;5.80;;;4.00;;
434;SDS011;204;48.942;9.256;2023-06-04T04:02:17;4.57;;;3.77;;
434;SDS011;204;48.942;9.256;2023-06-04T04:04:43;7.37;;;4.80;;
434;SDS011;204;48.942;9.256;2023-06-04T04:07:09;5.57;;;5.13;;
434;SDS011;204;48.942;9.256;2023-06-04T04:09:36;4.95;;;4.65;;
434;SDS011;204;48.942;9.256;2023-06-04T04:12:02;4.67;;;4.37;;
434;SDS011;204;48.942;9.256;2023-06-04T04:14:28;5.38;;;4.05;;
434;SDS011;204;48.942;9.256;2023-06-04T04:16:54;4.60;;;3.70;;
434;SDS011;204;48.942;9.256;2023-06-04T04:19:20;3.73;;;3.53;;
434;SDS011;204;48.942;9.256;2023-06-04T04:21:46;4.23;;;3.77;;
434;SDS011;204;48.942;9.256;2023-06-04T04:24:21;4.07;;;3.88;;
434;SDS011;204;48.942;9.256;2023-06-04T04:26:50;3.90;;;2.60;;
434;SDS011;204;48.942;9.256;2023-06-04T04:29:18;11.40;;;9.20;;
434;SDS011;204;48.942;9.256;2023-06-04T04:31:47;5.95;;;4.25;;
434;SDS011;204;48.942;9.256;2023-06-04T04:34:14;8.25;;;5.72;;
434;SDS011;204;48.942;9.256;2023-06-04T04:36:40;6.10;;;3.80;;
434;SDS011;204;48.942;9.256;2023-06-04T04:39:05;3.20;;;2.60;;
434;SDS011;204;48.942;9.256;2023-06-04T04:41:32;2.90;;;2.70;;
434;SDS011;204;48.942;9.256;2023-06-04T04:44:02;2.40;;;2.20;;
434;SDS011;204;48.942;9.256;2023-06-04T04:46:30;4.00;;;2.63;;
434;SDS011;204;48.942;9.256;2023-06-04T04:48:55;3.57;;;3.40;;
434;SDS011;204;48.942;9.256;2023-06-04T04:51:21;3.10;;;2.70;;
434;SDS011;204;48.942;9.256;2023-06-04T04:53:47;3.27;;;3.07;;
434;SDS011;204;48.942;9.256;2023-06-04T04:56:13;4.67;;;3.77;;
434;SDS011;204;48.942;9.256;2023-06-04T04:58:38;3.20;;;2.57;;
434;SDS011;204;48.942;9.256;2023-06-04T05:01:04;4.13;;;3.83;;
434;SDS011;204;48.942;9.256;2023-06-04T05:03:30;4.20;;;3.27;;
434;SDS011;204;48.942;9.256;2023-06-04T05:05:55;4.00;;;2.33;;
434;SDS011;204;48.942;9.256;2023-06-04T05:08:21;3.17;;;2.73;;
434;SDS011;204;48.942;9.256;2023-06-04T05:10:46;4.60;;;2.57;;
434;SDS011;204;48.942;9.256;2023-06-04T05:13:12;3.70;;;2.40;;
434;SDS011;204;48.942;9.256;2023-06-04T05:15:38;2.90;;;2.77;;
434;SDS011;204;48.942;9.256;2023-06-04T05:18:07;4.00;;;1.97;;
434;SDS011;204;48.942;9.256;2023-06-04T05:20:33;4.60;;;2.57;;
434;SDS011;204;48.942;9.256;2023-06-04T05:23:00;2.73;;;2.00;;
434;SDS011;204;48.942;9.256;2023-06-04T05:25:27;2.53;;;2.40;;
434;SDS011;204;48.942;9.256;2023-06-04T05:27:53;2.63;;;2.47;;
434;SDS011;204;48.942;9.256;2023-06-04T05:30:20;3.97;;;1.80;;
434;SDS011;204;48.942;9.256;2023-06-04T05:32:46;4.17;;;2.40;;
434;SDS011;204;48.942;9.256;2023-06-04T05:35:12;2.30;;;1.77;;
434;SDS011;204;48.942;9.256;2023-06-04T05:37:38;2.27;;;2.07;;
434;SDS011;204;48.942;9.256;2023-06-04T05:40:07;3.50;;;2.00;;
434;SDS011;204;48.942;9.256;2023-06-04T05:42:34;4.17;;;2.03;;
434;SDS011;204;48.942;9.256;2023-06-04T05:45:00;1.83;;;1.73;;
434;SDS011;204;48.942;9.256;2023-06-04T05:47:26;3.70;;;1.90;;
434;SDS011;204;48.942;9.256;2023-06-04T05:49:53;3.40;;;1.90;;
434;SDS011;204;48.942;9.256;2023-06-04T05:52:19;2.80;;;1.87;;
434;SDS011;204;48.942;9.256;2023-06-04T05:54:45;1.97;;;1.87;;
434;SDS011;204;48.942;9.256;2023-06-04T05:57:10;2.40;;;2.03;;
434;SDS011;204;48.942;9.256;2023-06-04T05:59:36;2.10;;;1.90;;
434;SDS011;204;48.942;9.256;2023-06-04T06:02:01;3.27;;;2.27;;
434;SDS011;204;48.942;9.256;2023-06-04T06:04:27;4.40;;;1.87;;
434;SDS011;204;48.942;9.256;2023-06-04T06:06:53;3.47;;;2.00;;
434;SDS011;204;48.942;9.256;2023-06-04T06:09:19;2.13;;;1.90;;
434;SDS011;204;48.942;9.256;2023-06-04T06:11:44;2.30;;;1.87;;
434;SDS011;204;48.942;9.256;2023-06-04T06:14:10;2.23;;;1.90;;
434;SDS011;204;48.942;9.256;2023-06-04T06:16:36;2.90;;;2.40;;
434;SDS011;204;48.942;9.256;2023-06-04T06:19:02;2.23;;;1.97;;
434;SDS011;204;48.942;9.256;2023-06-04T06:21:28;2.07;;;1.93;;
434;SDS011;204;48.942;9.256;2023-06-04T06:23:54;2.27;;;1.80;;
434;SDS011;204;48.942;9.256;2023-06-04T06:26:19;6.97;;;2.73;;
434;SDS011;204;48.942;9.256;2023-06-04T06:28:47;2.50;;;1.90;;
434;SDS011;204;48.942;9.256;2023-06-04T06:31:12;5.03;;;2.43;;
434;SDS011;204;48.942;9.256;2023-06-04T06:33:38;4.10;;;2.23;;
434;SDS011;204;48.942;9.256;2023-06-04T06:36:06;2.30;;;1.67;;
434;SDS011;204;48.942;9.256;2023-06-04T06:38:37;1.97;;;1.90;;
434;SDS011;204;48.942;9.256;2023-06-04T06:41:02;3.40;;;2.20;;
434;SDS011;204;48.942;9.256;2023-06-04T06:43:28;3.47;;;1.90;;
434;SDS011;204;48.942;9.256;2023-06-04T06:45:54;1.97;;;1.87;;
434;SDS011;204;48.942;9.256;2023-06-04T06:48:20;3.60;;;1.97;;
434;SDS011;204;48.942;9.256;2023-06-04T06:50:45;3.83;;;2.50;;
434;SDS011;204;48.942;9.256;2023-06-04T06:53:11;6.03;;;2.07;;
434;SDS011;204;48.942;9.256;2023-06-04T06:55:36;2.07;;;1.93;;
434;SDS011;204;48.942;9.256;2023-06-04T06:58:02;4.10;;;1.70;;
434;SDS011;204;48.942;9.256;2023-06-04T07:00:27;2.20;;;2.10;;
434;SDS011;204;48.942;9.256;2023-06-04T07:02:53;2.93;;;2.30;;
434;SDS011;204;48.942;9.256;2023-06-04T07:05:19;4.30;;;2.83;;
434;SDS011;204;48.942;9.256;2023-06-04T07:07:44;3.70;;;2.17;;
434;SDS011;204;48.942;9.256;2023-06-04T07:10:11;4.30;;;2.20;;
434;SDS011;204;48.942;9.256;2023-06-04T07:12:38;2.77;;;2.00;;
434;SDS011;204;48.942;9.256;2023-06-04T07:15:04;2.30;;;2.10;;
434;SDS011;204;48.942;9.256;2023-06-04T07:17:31;3.50;;;2.50;;
434;SDS011;204;48.942;9.256;2023-06-04T07:19:57;5.77;;;2.40;;
434;SDS011;204;48.942;9.256;2023-06-04T07:22:22;2.93;;;1.80;;
434;SDS011;204;48.942;9.256;2023-06-04T07:24:48;2.00;;;1.90;;
434;SDS011;204;48.942;9.256;2023-06-04T07:27:13;4.40;;;2.13;;
434;SDS011;204;48.942;9.256;2023-06-04T07:29:42;2.50;;;1.90;;
434;SDS011;204;48.942;9.256;2023-06-04T07:32:08;4.63;;;2.20;;
434;SDS011;204;48.942;9.256;2023-06-04T07:34:34;3.00;;;2.40;;
434;SDS011;204;48.942;9.256;2023-06-04T07:37:02;3.53;;;2.70;;
434;SDS011;204;48.942;9.256;2023-06-04T07:39:27;3.43;;;2.07;;
434;SDS011;204;48.942;9.256;2023-06-04T07:41:53;2.40;;;1.97;;
434;SDS011;204;48.942;9.256;2023-06-04T07:44:19;2.40;;;2.10;;
434;SDS011;204;48.942;9.256;2023-06-04T07:46:44;2.13;;;1.97;;
434;SDS011;204;48.942;9.256;2023-06-04T07:49:10;3.60;;;2.60;;
434;SDS011;204;48.942;9.256;2023-06-04T07:51:35;5.47;;;2.77;;
434;SDS011;204;48.942;9.256;2023-06-04T07:54:02;2.10;;;2.00;;
434;SDS011;204;48.942;9.256;2023-06-04T07:56:28;2.53;;;2.30;;
434;SDS011;204;48.942;9.256;2023-06-04T07:58:53;4.40;;;3.30;;
434;SDS011;204;48.942;9.256;2023-06-04T08:01:19;3.20;;;2.10;;
434;SDS011;204;48.942;9.256;2023-06-04T08:03:44;5.80;;;2.33;;
434;SDS011;204;48.942;9.256;2023-06-04T08:06:10;2.73;;;2.20;;
434;SDS011;204;48.942;9.256;2023-06-04T08:08:41;2.30;;;2.10;;
434;SDS011;204;48.942;9.256;2023-06-04T08:11:10;2.87;;;1.87;;
434;SDS011;204;48.942;9.256;2023-06-04T08:13:36;2.20;;;2.03;;
434;SDS011;204;48.942;9.256;2023-06-04T08:16:01;4.20;;;2.40;;
434;SDS011;204;48.942;9.256;2023-06-04T08:18:27;4.17;;;3.17;;
434;SDS011;204;48.942;9.256;2023-06-04T08:20:54;4.07;;;2.73;;
434;SDS011;204;48.942;9.256;2023-06-04T08:23:20;3.80;;;3.63;;
434;SDS011;204;48.942;9.256;2023-06-04T08:25:45;3.00;;;2.77;;
434;SDS011;204;48.942;9.256;2023-06-04T08:28:13;3.23;;;3.10;;
434;SDS011;204;48.942;9.256;2023-06-04T08:30:39;5.20;;;2.40;;
434;SDS011;204;48.942;9.256;2023-06-04T08:33:04;2.77;;;2.57;;
434;SDS011;204;48.942;9.256;2023-06-04T08:35:30;2.50;;;2.30;;
434;SDS011;204;48.942;9.256;2023-06-04T08:37:56;2.70;;;2.50;;
434;SDS011;204;48.942;9.256;2023-06-04T08:40:22;5.03;;;2.80;;
434;SDS011;204;48.942;9.256;2023-06-04T08:42:48;2.57;;;2.43;;
434;SDS011;204;48.942;9.256;2023-06-04T08:45:14;7.73;;;3.30;;
434;SDS011;204;48.942;9.256;2023-06-04T08:47:43;2.63;;;2.47;;
434;SDS011;204;48.942;9.256;2023-06-04T08:50:13;2.40;;;2.17;;
434;SDS011;204;48.942;9.256;2023-06-04T08:52:45;6.23;;;2.03;;
434;SDS011;204;48.942;9.256;2023-06-04T08:55:11;6.30;;;2.07;;
434;SDS011;204;48.942;9.256;2023-06-04T08:57:39;4.33;;;2.40;;
434;SDS011;204;48.942;9.256;2023-06-04T09:00:05;3.00;;;2.37;;
434;SDS011;204;48.942;9.256;2023-06-04T09:02:32;3.70;;;2.67;;
434;SDS011;204;48.942;9.256;2023-06-04T09:05:01;2.50;;;2.03;;
434;SDS011;204;48.942;9.256;2023-06-04T09:07:29;2.50;;;2.00;;
434;SDS011;204;48.942;9.256;2023-06-04T09:09:56;2.23;;;2.03;;
434;SDS011;204;48.942;9.256;2023-06-04T09:12:23;4.03;;;1.97;;
434;SDS011;204;48.942;9.256;2023-06-04T09:14:50;2.53;;;2.17;;
434;SDS011;204;48.942;9.256;2023-06-04T09:17:20;4.63;;;3.37;;
434;SDS011;204;48.942;9.256;2023-06-04T09:19:47;4.03;;;2.10;;
434;SDS011;204;48.942;9.256;2023-06-04T09:22:12;3.70;;;2.40;;
434;SDS011;204;48.942;9.256;2023-06-04T09:24:39;3.70;;;2.07;;
434;SDS011;204;48.942;9.256;2023-06-04T09:27:19;4.23;;;2.50;;
434;SDS011;204;48.942;9.256;2023-06-04T09:29:48;3.20;;;2.40;;
434;SDS011;204;48.942;9.256;2023-06-04T09:32:27;5.40;;;2.43;;
434;SDS011;204;48.942;9.256;2023-06-04T09:34:55;2.90;;;2.50;;
434;SDS011;204;48.942;9.256;2023-06-04T09:37:33;2.33;;;2.13;;
434;SDS011;204;48.942;9.256;2023-06-04T09:39:59;2.83;;;2.50;;
434;SDS011;204;48.942;9.256;2023-06-04T09:42:25;3.67;;;2.90;;
434;SDS011;204;48.942;9.256;2023-06-04T09:44:51;5.03;;;2.60;;
434;SDS011;204;48.942;9.256;2023-06-04T09:47:16;3.53;;;2.40;;
434;SDS011;204;48.942;9.256;2023-06-04T09:52:08;8.33;;;2.87;;
434;SDS011;204;48.942;9.256;2023-06-04T09:54:35;6.10;;;2.80;;
434;SDS011;204;48.942;9.256;2023-06-04T09:57:05;2.87;;;2.17;;
434;SDS011;204;48.942;9.256;2023-06-04T09:59:43;4.17;;;3.10;;
434;SDS011;204;48.942;9.256;2023-06-04T10:02:11;2.97;;;2.77;;
434;SDS011;204;48.942;9.256;2023-06-04T10:04:41;4.07;;;2.10;;
434;SDS011;204;48.942;9.256;2023-06-04T10:07:08;5.03;;;2.57;;
434;SDS011;204;48.942;9.256;2023-06-04T10:09:38;3.00;;;2.20;;
434;SDS011;204;48.942;9.256;2023-06-04T10:12:10;2.93;;;2.73;;
434;SDS011;204;48.942;9.256;2023-06-04T10:15:02;4.60;;;2.80;;
434;SDS011;204;48.942;9.256;2023-06-04T10:17:35;2.87;;;2.67;;
434;SDS011;204;48.942;9.256;2023-06-04T10:20:01;4.23;;;3.30;;
434;SDS011;204;48.942;9.256;2023-06-04T10:22:30;3.70;;;3.40;;
434;SDS011;204;48.942;9.256;2023-06-04T10:24:59;9.00;;;3.07;;
434;SDS011;204;48.942;9.256;2023-06-04T10:27:25;3.37;;;3.00;;
434;SDS011;204;48.942;9.256;2023-06-04T10:29:51;4.27;;;3.13;;
434;SDS011;204;48.942;9.256;2023-06-04T10:32:17;4.07;;;3.07;;
434;SDS011;204;48.942;9.256;2023-06-04T10:34:43;3.40;;;3.20;;
434;SDS011;204;48.942;9.256;2023-06-04T10:37:22;4.50;;;3.53;;
434;SDS011;204;48.942;9.256;2023-06-04T10:39:53;3.30;;;2.50;;
434;SDS011;204;48.942;9.256;2023-06-04T10:42:22;5.40;;;3.20;;
434;SDS011;204;48.942;9.256;2023-06-04T10:44:52;4.13;;;3.80;;
434;SDS011;204;48.942;9.256;2023-06-04T10:47:23;3.40;;;2.73;;
434;SDS011;204;48.942;9.256;2023-06-04T10:49:53;3.10;;;2.90;;
434;SDS011;204;48.942;9.256;2023-06-04T10:52:19;3.77;;;3.10;;
434;SDS011;204;48.942;9.256;2023-06-04T10:54:46;3.60;;;3.07;;
434;SDS011;204;48.942;9.256;2023-06-04T10:57:18;2.97;;;2.77;;
434;SDS011;204;48.942;9.256;2023-06-04T10:59:53;3.70;;;3.07;;
434;SDS011;204;48.942;9.256;2023-06-04T11:02:20;3.60;;;3.10;;
434;SDS011;204;48.942;9.256;2023-06-04T11:04:46;4.90;;;3.43;;
434;SDS011;204;48.942;9.256;2023-06-04T11:07:11;3.30;;;3.03;;
434;SDS011;204;48.942;9.256;2023-06-04T11:09:37;3.20;;;2.73;;
434;SDS011;204;48.942;9.256;2023-06-04T11:12:15;3.57;;;2.60;;
434;SDS011;204;48.942;9.256;2023-06-04T11:14:40;3.27;;;3.10;;
434;SDS011;204;48.942;9.256;2023-06-04T11:17:18;3.53;;;2.70;;
434;SDS011;204;48.942;9.256;2023-06-04T11:19:43;3.30;;;3.10;;
434;SDS011;204;48.942;9.256;2023-06-04T11:22:11;2.83;;;2.53;;
434;SDS011;204;48.942;9.256;2023-06-04T11:24:37;3.33;;;2.70;;
434;SDS011;204;48.942;9.256;2023-06-04T11:27:03;3.50;;;3.00;;
434;SDS011;204;48.942;9.256;2023-06-04T11:29:29;2.23;;;2.03;;
434;SDS011;204;48.942;9.256;2023-06-04T11:31:55;3.33;;;2.60;;
434;SDS011;204;48.942;9.256;2023-06-04T11:34:28;4.67;;;2.70;;
434;SDS011;204;48.942;9.256;2023-06-04T11:36:54;6.40;;;3.13;;
434;SDS011;204;48.942;9.256;2023-06-04T11:39:21;4.10;;;2.90;;
434;SDS011;204;48.942;9.256;2023-06-04T11:41:47;5.03;;;3.50;;
434;SDS011;204;48.942;9.256;2023-06-04T11:44:18;8.30;;;3.67;;
434;SDS011;204;48.942;9.256;2023-06-04T11:46:44;4.30;;;2.50;;
434;SDS011;204;48.942;9.256;2023-06-04T11:49:17;8.23;;;3.10;;
434;SDS011;204;48.942;9.256;2023-06-04T11:51:46;3.60;;;2.80;;
434;SDS011;204;48.942;9.256;2023-06-04T11:54:16;2.70;;;2.20;;
434;SDS011;204;48.942;9.256;2023-06-04T11:56:42;2.93;;;2.73;;
434;SDS011;204;48.942;9.256;2023-06-04T11:59:12;3.33;;;3.13;;
434;SDS011;204;48.942;9.256;2023-06-04T12:01:42;6.43;;;2.80;;
434;SDS011;204;48.942;9.256;2023-06-04T12:04:13;4.63;;;4.03;;
434;SDS011;204;48.942;9.256;2023-06-04T12:06:38;4.10;;;2.53;;
434;SDS011;204;48.942;9.256;2023-06-04T12:09:19;4.03;;;3.50;;
434;SDS011;204;48.942;9.256;2023-06-04T12:11:46;3.17;;;3.00;;
434;SDS011;204;48.942;9.256;2023-06-04T12:14:15;4.53;;;3.37;;
434;SDS011;204;48.942;9.256;2023-06-04T12:16:55;2.77;;;2.57;;
434;SDS011;204;48.942;9.256;2023-06-04T12:19:21;2.90;;;2.70;;
434;SDS011;204;48.942;9.256;2023-06-04T12:21:47;3.60;;;2.80;;
434;SDS011;204;48.942;9.256;2023-06-04T12:24:23;5.77;;;2.83;;
434;SDS011;204;48.942;9.256;2023-06-04T12:26:48;3.20;;;2.83;;
434;SDS011;204;48.942;9.256;2023-06-04T12:29:14;2.90;;;2.70;;
434;SDS011;204;48.942;9.256;2023-06-04T12:31:45;2.77;;;2.03;;
434;SDS011;204;48.942;9.256;2023-06-04T12:34:12;6.00;;;3.17;;
434;SDS011;204;48.942;9.256;2023-06-04T12:36:39;3.43;;;2.70;;
434;SDS011;204;48.942;9.256;2023-06-04T12:39:07;2.90;;;2.73;;
434;SDS011;204;48.942;9.256;2023-06-04T12:41:34;5.27;;;3.30;;
434;SDS011;204;48.942;9.256;2023-06-04T12:43:59;3.30;;;3.10;;
434;SDS011;204;48.942;9.256;2023-06-04T12:46:29;2.67;;;2.50;;
434;SDS011;204;48.942;9.256;2023-06-04T12:48:54;5.97;;;2.93;;
434;SDS011;204;48.942;9.256;2023-06-04T12:51:20;5.20;;;2.60;;
434;SDS011;204;48.942;9.256;2023-06-04T12:53:47;4.27;;;2.97;;
434;SDS011;204;48.942;9.256;2023-06-04T12:56:13;4.67;;;2.70;;
434;SDS011;204;48.942;9.256;2023-06-04T12:58:38;3.13;;;2.90;;
434;SDS011;204;48.942;9.256;2023-06-04T13:01:04;4.60;;;3.47;;
434;SDS011;204;48.942;9.256;2023-06-04T13:03:30;3.07;;;2.87;;
434;SDS011;204;48.942;9.256;2023-06-04T13:05:57;3.60;;;3.33;;
434;SDS011;204;48.942;9.256;2023-06-04T13:08:23;7.27;;;3.03;;
434;SDS011;204;48.942;9.256;2023-06-04T13:10:52;3.23;;;2.57;;
434;SDS011;204;48.942;9.256;2023-06-04T13:13:17;2.83;;;2.67;;
434;SDS011;204;48.942;9.256;2023-06-04T13:15:44;4.53;;;3.03;;
434;SDS011;204;48.942;9.256;2023-06-04T13:18:10;3.53;;;2.53;;
434;SDS011;204;48.942;9.256;2023-06-04T13:20:36;3.53;;;2.50;;
434;SDS011;204;48.942;9.256;2023-06-04T13:23:02;3.20;;;3.00;;
434;SDS011;204;48.942;9.256;2023-06-04T13:25:28;3.67;;;3.47;;
434;SDS011;204;48.942;9.256;2023-06-04T13:27:55;3.13;;;2.97;;
434;SDS011;204;48.942;9.256;2023-06-04T13:30:21;3.60;;;2.83;;
434;SDS011;204;48.942;9.256;2023-06-04T13:32:47;3.70;;;2.70;;
434;SDS011;204;48.942;9.256;2023-06-04T13:35:13;3.80;;;2.87;;
434;SDS011;204;48.942;9.256;2023-06-04T13:37:38;4.50;;;2.93;;
434;SDS011;204;48.942;9.256;2023-06-04T13:40:04;5.00;;;2.20;;
434;SDS011;204;48.942;9.256;2023-06-04T13:42:30;3.40;;;2.80;;
434;SDS011;204;48.942;9.256;2023-06-04T13:44:56;2.30;;;2.10;;
434;SDS011;204;48.942;9.256;2023-06-04T13:47:21;3.53;;;2.60;;
434;SDS011;204;48.942;9.256;2023-06-04T13:49:47;3.27;;;3.07;;
434;SDS011;204;48.942;9.256;2023-06-04T13:52:12;4.60;;;3.10;;
434;SDS011;204;48.942;9.256;2023-06-04T13:54:38;4.97;;;3.03;;
434;SDS011;204;48.942;9.256;2023-06-04T13:57:04;2.60;;;2.40;;
434;SDS011;204;48.942;9.256;2023-06-04T13:59:31;2.80;;;2.60;;
434;SDS011;204;48.942;9.256;2023-06-04T14:01:59;2.43;;;2.30;;
434;SDS011;204;48.942;9.256;2023-06-04T14:04:25;2.63;;;2.40;;
434;SDS011;204;48.942;9.256;2023-06-04T14:06:50;3.50;;;2.50;;
434;SDS011;204;48.942;9.256;2023-06-04T14:09:16;4.10;;;2.60;;
434;SDS011;204;48.942;9.256;2023-06-04T14:11:42;2.07;;;1.93;;
434;SDS011;204;48.942;9.256;2023-06-04T14:14:07;7.10;;;5.13;;
434;SDS011;204;48.942;9.256;2023-06-04T14:16:33;2.67;;;2.47;;
434;SDS011;204;48.942;9.256;2023-06-04T14:18:59;2.60;;;2.40;;
434;SDS011;204;48.942;9.256;2023-06-04T14:21:26;2.57;;;2.30;;
434;SDS011;204;48.942;9.256;2023-06-04T14:23:52;3.10;;;2.30;;
434;SDS011;204;48.942;9.256;2023-06-04T14:26:18;2.90;;;2.60;;
434;SDS011;204;48.942;9.256;2023-06-04T14:28:44;4.30;;;2.10;;
434;SDS011;204;48.942;9.256;2023-06-04T14:31:10;2.60;;;1.90;;
434;SDS011;204;48.942;9.256;2023-06-04T14:33:35;4.70;;;2.20;;
434;SDS011;204;48.942;9.256;2023-06-04T14:36:02;2.80;;;2.70;;
434;SDS011;204;48.942;9.256;2023-06-04T14:38:30;4.47;;;2.90;;
434;SDS011;204;48.942;9.256;2023-06-04T14:40:56;2.43;;;2.23;;
434;SDS011;204;48.942;9.256;2023-06-04T14:43:22;2.50;;;2.30;;
434;SDS011;204;48.942;9.256;2023-06-04T14:45:48;4.77;;;2.63;;
434;SDS011;204;48.942;9.256;2023-06-04T14:48:14;3.10;;;2.70;;
434;SDS011;204;48.942;9.256;2023-06-04T14:50:39;2.73;;;2.53;;
434;SDS011;204;48.942;9.256;2023-06-04T14:53:05;3.20;;;2.23;;
434;SDS011;204;48.942;9.256;2023-06-04T14:55:32;4.23;;;3.50;;
434;SDS011;204;48.942;9.256;2023-06-04T14:57:59;2.67;;;2.33;;
434;SDS011;204;48.942;9.256;2023-06-04T15:00:25;5.80;;;2.63;;
434;SDS011;204;48.942;9.256;2023-06-04T15:02:50;2.60;;;1.90;;
434;SDS011;204;48.942;9.256;2023-06-04T15:05:16;2.77;;;2.37;;
434;SDS011;204;48.942;9.256;2023-06-04T15:07:42;2.07;;;1.93;;
434;SDS011;204;48.942;9.256;2023-06-04T15:10:07;3.57;;;2.23;;
434;SDS011;204;48.942;9.256;2023-06-04T15:12:34;2.97;;;2.40;;
434;SDS011;204;48.942;9.256;2023-06-04T15:15:03;2.90;;;2.20;;
434;SDS011;204;48.942;9.256;2023-06-04T15:17:30;6.00;;;2.53;;
434;SDS011;204;48.942;9.256;2023-06-04T15:19:55;2.43;;;2.30;;
434;SDS011;204;48.942;9.256;2023-06-04T15:22:21;2.27;;;2.07;;
434;SDS011;204;48.942;9.256;2023-06-04T15:24:47;2.60;;;2.40;;
434;SDS011;204;48.942;9.256;2023-06-04T15:27:12;3.13;;;2.93;;
434;SDS011;204;48.942;9.256;2023-06-04T15:29:38;3.50;;;3.27;;
434;SDS011;204;48.942;9.256;2023-06-04T15:32:03;2.90;;;2.70;;
434;SDS011;204;48.942;9.256;2023-06-04T15:34:29;3.47;;;3.30;;
434;SDS011;204;48.942;9.256;2023-06-04T15:36:55;4.43;;;3.00;;
434;SDS011;204;48.942;9.256;2023-06-04T15:39:21;2.97;;;2.67;;
434;SDS011;204;48.942;9.256;2023-06-04T15:41:47;3.23;;;2.67;;
434;SDS011;204;48.942;9.256;2023-06-04T15:44:12;2.80;;;2.60;;
434;SDS011;204;48.942;9.256;2023-06-04T15:46:38;3.07;;;2.73;;
434;SDS011;204;48.942;9.256;2023-06-04T15:49:06;3.80;;;3.00;;